sensor_id;sensor_type;location;lat;lon;timestamp;P1;durP1;ratioP1;P2;durP2;ratioP2
32319;SDS011;19080;51.750;5.888;2023-04-25T00:02:02;15.52;;;5.78;;
32319;SDS011;19080;51.750;5.888;2023-04-25T00:04:29;13.95;;;5.43;;
32319;SDS011;19080;51.750;5.888;2023-04-25T00:06:58;12.68;;;5.30;;
32319;SDS011;19080;51.750;5.888;2023-04-25T00:09:27;12.80;;;5.22;;
32319;SDS011;19080;51.750;5.888;2023-04-25T00:11:54;7.75;;;4.15;;
32319;SDS011;19080;51.750;5.888;2023-04-25T00:14:21;14.88;;;4.63;;
32319;SDS011;19080;51.750;5.888;2023-04-25T00:16:49;16.67;;;5.00;;
32319;SDS011;19080;51.750;5.888;2023-04-25T00:19:17;16.35;;;6.07;;
32319;SDS011;19080;51.750;5.888;2023-04-25T00:21:44;9.85;;;4.68;;
32319;SDS011;19080;51.750;5.888;2023-04-25T00:24:13;13.77;;;4.45;;
32319;SDS011;19080;51.750;5.888;2023-04-25T00:26:40;16.38;;;5.68;;
32319;SDS011;19080;51.750;5.888;2023-04-25T00:29:06;13.13;;;4.85;;
32319;SDS011;19080;51.750;5.888;2023-04-25T00:31:33;13.27;;;5.22;;
32319;SDS011;19080;51.750;5.888;2023-04-25T00:34:00;13.23;;;6.25;;
32319;SDS011;19080;51.750;5.888;2023-04-25T00:36:26;13.45;;;5.07;;
32319;SDS011;19080;51.750;5.888;2023-04-25T00:38:53;15.88;;;5.78;;
32319;SDS011;19080;51.750;5.888;2023-04-25T00:41:21;10.60;;;4.05;;
32319;SDS011;19080;51.750;5.888;2023-04-25T00:43:49;9.10;;;4.53;;
32319;SDS011;19080;51.750;5.888;2023-04-25T00:46:17;13.13;;;4.25;;
32319;SDS011;19080;51.750;5.888;2023-04-25T00:48:44;13.82;;;5.38;;
32319;SDS011;19080;51.750;5.888;2023-04-25T00:51:12;14.90;;;5.47;;
32319;SDS011;19080;51.750;5.888;2023-04-25T00:53:45;13.48;;;5.72;;
32319;SDS011;19080;51.750;5.888;2023-04-25T00:56:13;13.48;;;5.15;;
32319;SDS011;19080;51.750;5.888;2023-04-25T00:58:41;9.00;;;5.10;;
32319;SDS011;19080;51.750;5.888;2023-04-25T01:01:09;12.52;;;4.80;;
32319;SDS011;19080;51.750;5.888;2023-04-25T01:03:37;13.00;;;4.80;;
32319;SDS011;19080;51.750;5.888;2023-04-25T01:06:09;13.57;;;4.68;;
32319;SDS011;19080;51.750;5.888;2023-04-25T01:08:37;17.40;;;5.82;;
32319;SDS011;19080;51.750;5.888;2023-04-25T01:11:05;19.25;;;5.90;;
32319;SDS011;19080;51.750;5.888;2023-04-25T01:13:33;11.52;;;5.13;;
32319;SDS011;19080;51.750;5.888;2023-04-25T01:16:01;14.60;;;5.15;;
32319;SDS011;19080;51.750;5.888;2023-04-25T01:18:28;12.18;;;6.05;;
32319;SDS011;19080;51.750;5.888;2023-04-25T01:20:55;15.27;;;5.60;;
32319;SDS011;19080;51.750;5.888;2023-04-25T01:23:34;16.75;;;5.50;;
32319;SDS011;19080;51.750;5.888;2023-04-25T01:26:03;11.43;;;4.75;;
32319;SDS011;19080;51.750;5.888;2023-04-25T01:28:30;13.18;;;5.13;;
32319;SDS011;19080;51.750;5.888;2023-04-25T01:30:57;16.98;;;5.47;;
32319;SDS011;19080;51.750;5.888;2023-04-25T01:33:24;20.83;;;6.13;;
32319;SDS011;19080;51.750;5.888;2023-04-25T01:35:51;17.40;;;5.10;;
32319;SDS011;19080;51.750;5.888;2023-04-25T01:38:19;18.17;;;5.60;;
32319;SDS011;19080;51.750;5.888;2023-04-25T01:40:46;15.38;;;5.70;;
32319;SDS011;19080;51.750;5.888;2023-04-25T01:43:18;18.50;;;6.15;;
32319;SDS011;19080;51.750;5.888;2023-04-25T01:45:45;17.65;;;5.63;;
32319;SDS011;19080;51.750;5.888;2023-04-25T01:48:12;17.55;;;6.38;;
32319;SDS011;19080;51.750;5.888;2023-04-25T01:50:42;17.98;;;5.80;;
32319;SDS011;19080;51.750;5.888;2023-04-25T01:53:11;14.82;;;5.72;;
32319;SDS011;19080;51.750;5.888;2023-04-25T01:55:41;17.23;;;5.25;;
32319;SDS011;19080;51.750;5.888;2023-04-25T01:58:12;18.95;;;6.53;;
32319;SDS011;19080;51.750;5.888;2023-04-25T02:00:55;13.88;;;5.57;;
32319;SDS011;19080;51.750;5.888;2023-04-25T02:03:24;19.52;;;6.47;;
32319;SDS011;19080;51.750;5.888;2023-04-25T02:05:53;20.25;;;6.30;;
32319;SDS011;19080;51.750;5.888;2023-04-25T02:08:20;15.70;;;6.40;;
32319;SDS011;19080;51.750;5.888;2023-04-25T02:10:46;18.58;;;6.22;;
32319;SDS011;19080;51.750;5.888;2023-04-25T02:13:16;14.32;;;6.57;;
32319;SDS011;19080;51.750;5.888;2023-04-25T02:15:49;14.05;;;6.43;;
32319;SDS011;19080;51.750;5.888;2023-04-25T02:18:19;14.63;;;6.00;;
32319;SDS011;19080;51.750;5.888;2023-04-25T02:20:47;21.42;;;6.32;;
32319;SDS011;19080;51.750;5.888;2023-04-25T02:23:14;14.65;;;6.18;;
32319;SDS011;19080;51.750;5.888;2023-04-25T02:25:45;20.60;;;6.65;;
32319;SDS011;19080;51.750;5.888;2023-04-25T02:28:13;15.85;;;5.97;;
32319;SDS011;19080;51.750;5.888;2023-04-25T02:30:39;10.55;;;5.18;;
32319;SDS011;19080;51.750;5.888;2023-04-25T02:33:06;11.88;;;5.30;;
32319;SDS011;19080;51.750;5.888;2023-04-25T02:35:34;11.50;;;5.45;;
32319;SDS011;19080;51.750;5.888;2023-04-25T02:38:03;12.82;;;5.53;;
32319;SDS011;19080;51.750;5.888;2023-04-25T02:40:32;15.63;;;6.18;;
32319;SDS011;19080;51.750;5.888;2023-04-25T02:42:59;16.55;;;5.72;;
32319;SDS011;19080;51.750;5.888;2023-04-25T02:45:26;16.75;;;5.25;;
32319;SDS011;19080;51.750;5.888;2023-04-25T02:47:53;20.00;;;5.82;;
32319;SDS011;19080;51.750;5.888;2023-04-25T02:50:19;14.65;;;5.78;;
32319;SDS011;19080;51.750;5.888;2023-04-25T02:52:46;12.48;;;5.10;;
32319;SDS011;19080;51.750;5.888;2023-04-25T02:55:17;8.25;;;4.05;;
32319;SDS011;19080;51.750;5.888;2023-04-25T02:57:45;12.10;;;5.38;;
32319;SDS011;19080;51.750;5.888;2023-04-25T03:00:18;15.93;;;5.18;;
32319;SDS011;19080;51.750;5.888;2023-04-25T03:02:44;11.23;;;3.78;;
32319;SDS011;19080;51.750;5.888;2023-04-25T03:05:12;13.23;;;5.47;;
32319;SDS011;19080;51.750;5.888;2023-04-25T03:07:38;18.75;;;5.78;;
32319;SDS011;19080;51.750;5.888;2023-04-25T03:10:06;15.65;;;6.50;;
32319;SDS011;19080;51.750;5.888;2023-04-25T03:12:34;13.00;;;5.40;;
32319;SDS011;19080;51.750;5.888;2023-04-25T03:15:03;14.80;;;5.40;;
32319;SDS011;19080;51.750;5.888;2023-04-25T03:17:30;12.63;;;4.45;;
32319;SDS011;19080;51.750;5.888;2023-04-25T03:19:57;12.02;;;4.70;;
32319;SDS011;19080;51.750;5.888;2023-04-25T03:22:24;13.60;;;5.18;;
32319;SDS011;19080;51.750;5.888;2023-04-25T03:24:52;12.57;;;4.90;;
32319;SDS011;19080;51.750;5.888;2023-04-25T03:27:19;13.43;;;4.88;;
32319;SDS011;19080;51.750;5.888;2023-04-25T03:29:46;12.85;;;5.88;;
32319;SDS011;19080;51.750;5.888;2023-04-25T03:32:13;14.82;;;5.40;;
32319;SDS011;19080;51.750;5.888;2023-04-25T03:34:39;14.45;;;6.40;;
32319;SDS011;19080;51.750;5.888;2023-04-25T03:37:06;18.05;;;6.35;;
32319;SDS011;19080;51.750;5.888;2023-04-25T03:39:36;15.90;;;6.05;;
32319;SDS011;19080;51.750;5.888;2023-04-25T03:42:05;14.23;;;6.25;;
32319;SDS011;19080;51.750;5.888;2023-04-25T03:44:32;17.33;;;6.30;;
32319;SDS011;19080;51.750;5.888;2023-04-25T03:47:00;14.23;;;6.70;;
32319;SDS011;19080;51.750;5.888;2023-04-25T03:49:26;10.23;;;5.20;;
32319;SDS011;19080;51.750;5.888;2023-04-25T03:51:57;15.05;;;6.35;;
32319;SDS011;19080;51.750;5.888;2023-04-25T03:54:24;14.40;;;5.65;;
32319;SDS011;19080;51.750;5.888;2023-04-25T03:57:15;9.90;;;5.05;;
32319;SDS011;19080;51.750;5.888;2023-04-25T03:59:42;11.38;;;4.95;;
32319;SDS011;19080;51.750;5.888;2023-04-25T04:02:10;10.73;;;4.80;;
32319;SDS011;19080;51.750;5.888;2023-04-25T04:04:38;9.65;;;5.13;;
32319;SDS011;19080;51.750;5.888;2023-04-25T04:07:06;22.60;;;7.70;;
32319;SDS011;19080;51.750;5.888;2023-04-25T04:09:35;12.55;;;6.07;;
32319;SDS011;19080;51.750;5.888;2023-04-25T04:12:06;12.23;;;6.03;;
32319;SDS011;19080;51.750;5.888;2023-04-25T04:14:34;15.90;;;7.03;;
32319;SDS011;19080;51.750;5.888;2023-04-25T04:17:01;13.38;;;5.80;;
32319;SDS011;19080;51.750;5.888;2023-04-25T04:19:29;13.93;;;6.57;;
32319;SDS011;19080;51.750;5.888;2023-04-25T04:22:09;12.98;;;6.35;;
32319;SDS011;19080;51.750;5.888;2023-04-25T04:24:37;17.27;;;7.00;;
32319;SDS011;19080;51.750;5.888;2023-04-25T04:27:06;16.95;;;6.53;;
32319;SDS011;19080;51.750;5.888;2023-04-25T04:29:36;15.50;;;7.50;;
32319;SDS011;19080;51.750;5.888;2023-04-25T04:32:12;13.38;;;7.78;;
32319;SDS011;19080;51.750;5.888;2023-04-25T04:34:40;15.20;;;8.15;;
32319;SDS011;19080;51.750;5.888;2023-04-25T04:37:07;18.33;;;8.40;;
32319;SDS011;19080;51.750;5.888;2023-04-25T04:39:35;18.90;;;9.20;;
32319;SDS011;19080;51.750;5.888;2023-04-25T04:42:28;22.75;;;9.30;;
32319;SDS011;19080;51.750;5.888;2023-04-25T04:45:24;12.85;;;7.80;;
32319;SDS011;19080;51.750;5.888;2023-04-25T04:48:05;15.00;;;8.15;;
32319;SDS011;19080;51.750;5.888;2023-04-25T04:50:35;12.47;;;7.70;;
32319;SDS011;19080;51.750;5.888;2023-04-25T04:53:20;15.43;;;7.88;;
32319;SDS011;19080;51.750;5.888;2023-04-25T04:56:14;16.90;;;8.35;;
32319;SDS011;19080;51.750;5.888;2023-04-25T04:58:50;17.33;;;8.27;;
32319;SDS011;19080;51.750;5.888;2023-04-25T05:01:40;26.70;;;9.30;;
32319;SDS011;19080;51.750;5.888;2023-04-25T05:04:19;18.58;;;8.00;;
32319;SDS011;19080;51.750;5.888;2023-04-25T05:07:04;16.33;;;8.45;;
32319;SDS011;19080;51.750;5.888;2023-04-25T05:09:31;18.30;;;8.38;;
32319;SDS011;19080;51.750;5.888;2023-04-25T05:12:08;18.73;;;8.82;;
32319;SDS011;19080;51.750;5.888;2023-04-25T05:14:35;20.45;;;9.82;;
32319;SDS011;19080;51.750;5.888;2023-04-25T05:19:53;19.23;;;10.32;;
32319;SDS011;19080;51.750;5.888;2023-04-25T05:22:33;22.02;;;9.23;;
32319;SDS011;19080;51.750;5.888;2023-04-25T05:25:12;18.17;;;8.55;;
32319;SDS011;19080;51.750;5.888;2023-04-25T05:27:48;22.95;;;8.90;;
32319;SDS011;19080;51.750;5.888;2023-04-25T05:30:34;17.90;;;8.30;;
32319;SDS011;19080;51.750;5.888;2023-04-25T05:33:08;21.08;;;8.82;;
32319;SDS011;19080;51.750;5.888;2023-04-25T05:35:35;22.65;;;7.82;;
32319;SDS011;19080;51.750;5.888;2023-04-25T05:38:02;18.48;;;7.50;;
32319;SDS011;19080;51.750;5.888;2023-04-25T05:40:51;15.75;;;6.35;;
32319;SDS011;19080;51.750;5.888;2023-04-25T05:43:41;17.77;;;6.35;;
32319;SDS011;19080;51.750;5.888;2023-04-25T05:46:33;17.30;;;6.25;;
32319;SDS011;19080;51.750;5.888;2023-04-25T05:49:11;19.48;;;6.97;;
32319;SDS011;19080;51.750;5.888;2023-04-25T05:51:55;16.23;;;6.40;;
32319;SDS011;19080;51.750;5.888;2023-04-25T05:54:51;13.05;;;5.78;;
32319;SDS011;19080;51.750;5.888;2023-04-25T05:57:19;23.13;;;6.35;;
32319;SDS011;19080;51.750;5.888;2023-04-25T05:59:51;13.02;;;5.38;;
32319;SDS011;19080;51.750;5.888;2023-04-25T06:02:19;15.43;;;5.75;;
32319;SDS011;19080;51.750;5.888;2023-04-25T06:04:49;13.30;;;5.05;;
32319;SDS011;19080;51.750;5.888;2023-04-25T06:07:18;12.93;;;5.43;;
32319;SDS011;19080;51.750;5.888;2023-04-25T06:09:47;16.17;;;5.28;;
32319;SDS011;19080;51.750;5.888;2023-04-25T06:12:14;13.90;;;4.70;;
32319;SDS011;19080;51.750;5.888;2023-04-25T06:14:41;12.82;;;4.72;;
32319;SDS011;19080;51.750;5.888;2023-04-25T06:17:07;9.52;;;4.05;;
32319;SDS011;19080;51.750;5.888;2023-04-25T06:19:37;10.85;;;3.90;;
32319;SDS011;19080;51.750;5.888;2023-04-25T06:22:04;15.15;;;4.75;;
32319;SDS011;19080;51.750;5.888;2023-04-25T06:24:32;14.38;;;4.38;;
32319;SDS011;19080;51.750;5.888;2023-04-25T06:27:02;15.57;;;4.43;;
32319;SDS011;19080;51.750;5.888;2023-04-25T06:29:28;15.77;;;4.20;;
32319;SDS011;19080;51.750;5.888;2023-04-25T06:31:56;14.77;;;3.85;;
32319;SDS011;19080;51.750;5.888;2023-04-25T06:34:23;12.98;;;3.65;;
32319;SDS011;19080;51.750;5.888;2023-04-25T06:36:50;13.43;;;3.95;;
32319;SDS011;19080;51.750;5.888;2023-04-25T06:39:18;10.23;;;3.03;;
32319;SDS011;19080;51.750;5.888;2023-04-25T06:41:47;13.88;;;3.58;;
32319;SDS011;19080;51.750;5.888;2023-04-25T06:44:35;10.25;;;2.95;;
32319;SDS011;19080;51.750;5.888;2023-04-25T06:47:06;7.40;;;2.53;;
32319;SDS011;19080;51.750;5.888;2023-04-25T06:49:32;14.38;;;2.75;;
32319;SDS011;19080;51.750;5.888;2023-04-25T06:52:00;9.13;;;2.83;;
32319;SDS011;19080;51.750;5.888;2023-04-25T06:54:27;9.30;;;3.20;;
32319;SDS011;19080;51.750;5.888;2023-04-25T06:57:03;9.23;;;3.60;;
32319;SDS011;19080;51.750;5.888;2023-04-25T06:59:31;11.00;;;3.28;;
32319;SDS011;19080;51.750;5.888;2023-04-25T07:02:00;12.25;;;3.22;;
32319;SDS011;19080;51.750;5.888;2023-04-25T07:04:26;16.83;;;3.05;;
32319;SDS011;19080;51.750;5.888;2023-04-25T07:06:55;9.95;;;2.80;;
32319;SDS011;19080;51.750;5.888;2023-04-25T07:09:30;12.93;;;2.80;;
32319;SDS011;19080;51.750;5.888;2023-04-25T07:12:00;9.98;;;2.55;;
32319;SDS011;19080;51.750;5.888;2023-04-25T07:14:28;12.75;;;2.40;;
32319;SDS011;19080;51.750;5.888;2023-04-25T07:16:56;10.88;;;2.47;;
32319;SDS011;19080;51.750;5.888;2023-04-25T07:19:25;7.90;;;2.40;;
32319;SDS011;19080;51.750;5.888;2023-04-25T07:21:56;8.95;;;2.42;;
32319;SDS011;19080;51.750;5.888;2023-04-25T07:24:22;7.47;;;2.40;;
32319;SDS011;19080;51.750;5.888;2023-04-25T07:26:50;9.25;;;2.50;;
32319;SDS011;19080;51.750;5.888;2023-04-25T07:29:27;8.88;;;2.45;;
32319;SDS011;19080;51.750;5.888;2023-04-25T07:31:57;9.63;;;2.00;;
32319;SDS011;19080;51.750;5.888;2023-04-25T07:34:24;10.60;;;2.85;;
32319;SDS011;19080;51.750;5.888;2023-04-25T07:36:51;8.00;;;2.13;;
32319;SDS011;19080;51.750;5.888;2023-04-25T07:39:20;11.02;;;3.08;;
32319;SDS011;19080;51.750;5.888;2023-04-25T07:41:47;8.32;;;2.40;;
32319;SDS011;19080;51.750;5.888;2023-04-25T07:44:19;7.32;;;2.42;;
32319;SDS011;19080;51.750;5.888;2023-04-25T07:46:46;9.65;;;2.95;;
32319;SDS011;19080;51.750;5.888;2023-04-25T07:49:14;10.63;;;3.30;;
32319;SDS011;19080;51.750;5.888;2023-04-25T07:51:43;8.15;;;2.33;;
32319;SDS011;19080;51.750;5.888;2023-04-25T07:54:13;6.30;;;1.83;;
32319;SDS011;19080;51.750;5.888;2023-04-25T07:56:45;9.25;;;1.90;;
32319;SDS011;19080;51.750;5.888;2023-04-25T07:59:27;7.20;;;2.30;;
32319;SDS011;19080;51.750;5.888;2023-04-25T08:02:07;8.00;;;2.00;;
32319;SDS011;19080;51.750;5.888;2023-04-25T08:04:34;8.35;;;1.85;;
32319;SDS011;19080;51.750;5.888;2023-04-25T08:07:03;7.57;;;1.83;;
32319;SDS011;19080;51.750;5.888;2023-04-25T08:09:37;7.32;;;2.03;;
32319;SDS011;19080;51.750;5.888;2023-04-25T08:12:09;13.38;;;2.63;;
32319;SDS011;19080;51.750;5.888;2023-04-25T08:14:35;8.73;;;2.38;;
32319;SDS011;19080;51.750;5.888;2023-04-25T08:17:04;8.88;;;2.30;;
32319;SDS011;19080;51.750;5.888;2023-04-25T08:19:37;7.07;;;2.00;;
32319;SDS011;19080;51.750;5.888;2023-04-25T08:22:05;7.45;;;2.25;;
32319;SDS011;19080;51.750;5.888;2023-04-25T08:24:42;5.47;;;1.55;;
32319;SDS011;19080;51.750;5.888;2023-04-25T08:27:09;5.97;;;2.15;;
32319;SDS011;19080;51.750;5.888;2023-04-25T08:29:37;11.05;;;2.10;;
32319;SDS011;19080;51.750;5.888;2023-04-25T08:32:04;5.93;;;2.10;;
32319;SDS011;19080;51.750;5.888;2023-04-25T08:34:33;5.57;;;1.80;;
32319;SDS011;19080;51.750;5.888;2023-04-25T08:37:02;6.90;;;2.17;;
32319;SDS011;19080;51.750;5.888;2023-04-25T08:39:39;6.15;;;1.95;;
32319;SDS011;19080;51.750;5.888;2023-04-25T08:42:20;7.03;;;1.50;;
32319;SDS011;19080;51.750;5.888;2023-04-25T08:44:48;11.73;;;2.40;;
32319;SDS011;19080;51.750;5.888;2023-04-25T08:47:17;6.20;;;1.58;;
32319;SDS011;19080;51.750;5.888;2023-04-25T08:49:52;7.35;;;1.95;;
32319;SDS011;19080;51.750;5.888;2023-04-25T08:52:23;8.98;;;2.00;;
32319;SDS011;19080;51.750;5.888;2023-04-25T08:54:53;11.45;;;2.15;;
32319;SDS011;19080;51.750;5.888;2023-04-25T08:57:21;8.40;;;2.28;;
32319;SDS011;19080;51.750;5.888;2023-04-25T08:59:50;8.57;;;1.73;;
32319;SDS011;19080;51.750;5.888;2023-04-25T09:02:19;10.52;;;2.20;;
32319;SDS011;19080;51.750;5.888;2023-04-25T09:04:48;7.43;;;1.63;;
32319;SDS011;19080;51.750;5.888;2023-04-25T09:07:16;6.45;;;1.75;;
32319;SDS011;19080;51.750;5.888;2023-04-25T09:09:45;7.50;;;1.80;;
32319;SDS011;19080;51.750;5.888;2023-04-25T09:12:15;6.32;;;2.10;;
32319;SDS011;19080;51.750;5.888;2023-04-25T09:18:03;10.50;;;2.50;;
32319;SDS011;19080;51.750;5.888;2023-04-25T09:20:41;4.78;;;1.40;;
32319;SDS011;19080;51.750;5.888;2023-04-25T09:23:26;4.20;;;1.58;;
32319;SDS011;19080;51.750;5.888;2023-04-25T09:26:10;7.55;;;1.70;;
32319;SDS011;19080;51.750;5.888;2023-04-25T09:30:13;6.25;;;1.52;;
32319;SDS011;19080;51.750;5.888;2023-04-25T09:37:28;4.03;;;1.30;;
32319;SDS011;19080;51.750;5.888;2023-04-25T09:41:10;6.55;;;1.63;;
32319;SDS011;19080;51.750;5.888;2023-04-25T09:44:14;5.70;;;1.60;;
32319;SDS011;19080;51.750;5.888;2023-04-25T09:47:19;6.32;;;1.63;;
32319;SDS011;19080;51.750;5.888;2023-04-25T09:51:10;8.25;;;1.52;;
32319;SDS011;19080;51.750;5.888;2023-04-25T09:55:09;6.88;;;1.33;;
32319;SDS011;19080;51.750;5.888;2023-04-25T11:27:56;4.50;;;1.45;;
32319;SDS011;19080;51.750;5.888;2023-04-25T11:30:24;4.75;;;1.55;;
32319;SDS011;19080;51.750;5.888;2023-04-25T11:32:52;7.13;;;1.95;;
32319;SDS011;19080;51.750;5.888;2023-04-25T11:35:20;6.95;;;1.70;;
32319;SDS011;19080;51.750;5.888;2023-04-25T11:37:49;4.43;;;1.60;;
32319;SDS011;19080;51.750;5.888;2023-04-25T11:40:17;2.75;;;1.00;;
32319;SDS011;19080;51.750;5.888;2023-04-25T11:42:45;9.25;;;1.30;;
32319;SDS011;19080;51.750;5.888;2023-04-25T11:45:13;6.03;;;1.40;;
32319;SDS011;19080;51.750;5.888;2023-04-25T11:47:40;5.97;;;1.60;;
32319;SDS011;19080;51.750;5.888;2023-04-25T11:50:07;11.55;;;1.88;;
32319;SDS011;19080;51.750;5.888;2023-04-25T11:52:42;6.55;;;1.65;;
32319;SDS011;19080;51.750;5.888;2023-04-25T11:55:13;6.63;;;1.52;;
32319;SDS011;19080;51.750;5.888;2023-04-25T11:57:45;4.68;;;1.40;;
32319;SDS011;19080;51.750;5.888;2023-04-25T12:00:15;3.42;;;1.00;;
32319;SDS011;19080;51.750;5.888;2023-04-25T12:02:50;4.72;;;1.17;;
32319;SDS011;19080;51.750;5.888;2023-04-25T12:05:19;5.53;;;1.50;;
32319;SDS011;19080;51.750;5.888;2023-04-25T12:10:42;4.35;;;1.25;;
32319;SDS011;19080;51.750;5.888;2023-04-25T12:13:19;5.32;;;1.02;;
32319;SDS011;19080;51.750;5.888;2023-04-25T12:15:47;4.00;;;1.30;;
32319;SDS011;19080;51.750;5.888;2023-04-25T12:18:14;2.78;;;0.90;;
32319;SDS011;19080;51.750;5.888;2023-04-25T12:20:41;9.70;;;1.70;;
32319;SDS011;19080;51.750;5.888;2023-04-25T12:23:07;4.32;;;1.20;;
32319;SDS011;19080;51.750;5.888;2023-04-25T12:25:41;4.22;;;1.40;;
32319;SDS011;19080;51.750;5.888;2023-04-25T12:30:56;5.00;;;1.52;;
32319;SDS011;19080;51.750;5.888;2023-04-25T12:33:24;12.98;;;5.80;;
32319;SDS011;19080;51.750;5.888;2023-04-25T12:35:52;7.32;;;2.88;;
32319;SDS011;19080;51.750;5.888;2023-04-25T12:38:24;5.60;;;1.30;;
32319;SDS011;19080;51.750;5.888;2023-04-25T12:40:52;8.38;;;1.35;;
32319;SDS011;19080;51.750;5.888;2023-04-25T12:43:19;3.67;;;1.38;;
32319;SDS011;19080;51.750;5.888;2023-04-25T12:45:54;6.95;;;2.05;;
32319;SDS011;19080;51.750;5.888;2023-04-25T12:48:21;3.70;;;1.52;;
32319;SDS011;19080;51.750;5.888;2023-04-25T12:50:49;4.05;;;1.38;;
32319;SDS011;19080;51.750;5.888;2023-04-25T12:53:17;5.75;;;1.48;;
32319;SDS011;19080;51.750;5.888;2023-04-25T12:55:45;6.22;;;1.60;;
32319;SDS011;19080;51.750;5.888;2023-04-25T12:58:18;5.43;;;1.77;;
32319;SDS011;19080;51.750;5.888;2023-04-25T13:00:46;8.52;;;1.40;;
32319;SDS011;19080;51.750;5.888;2023-04-25T13:03:13;3.58;;;1.38;;
32319;SDS011;19080;51.750;5.888;2023-04-25T13:05:40;3.38;;;1.15;;
32319;SDS011;19080;51.750;5.888;2023-04-25T13:08:07;9.88;;;2.53;;
32319;SDS011;19080;51.750;5.888;2023-04-25T13:10:34;8.07;;;3.47;;
32319;SDS011;19080;51.750;5.888;2023-04-25T13:13:02;8.18;;;4.05;;
32319;SDS011;19080;51.750;5.888;2023-04-25T13:15:28;5.38;;;2.85;;
32319;SDS011;19080;51.750;5.888;2023-04-25T13:17:55;14.63;;;7.03;;
32319;SDS011;19080;51.750;5.888;2023-04-25T13:20:22;5.50;;;1.75;;
32319;SDS011;19080;51.750;5.888;2023-04-25T13:22:49;5.40;;;1.20;;
32319;SDS011;19080;51.750;5.888;2023-04-25T13:25:16;3.95;;;1.33;;
32319;SDS011;19080;51.750;5.888;2023-04-25T13:27:42;4.93;;;1.40;;
32319;SDS011;19080;51.750;5.888;2023-04-25T13:30:10;3.88;;;0.82;;
32319;SDS011;19080;51.750;5.888;2023-04-25T13:32:37;4.15;;;0.93;;
32319;SDS011;19080;51.750;5.888;2023-04-25T13:35:05;3.38;;;1.10;;
32319;SDS011;19080;51.750;5.888;2023-04-25T13:37:36;5.53;;;1.40;;
32319;SDS011;19080;51.750;5.888;2023-04-25T13:40:03;4.85;;;1.30;;
32319;SDS011;19080;51.750;5.888;2023-04-25T13:42:36;3.83;;;0.98;;
32319;SDS011;19080;51.750;5.888;2023-04-25T13:45:03;4.18;;;1.13;;
32319;SDS011;19080;51.750;5.888;2023-04-25T13:47:30;6.00;;;1.13;;
32319;SDS011;19080;51.750;5.888;2023-04-25T13:49:57;3.67;;;1.13;;
32319;SDS011;19080;51.750;5.888;2023-04-25T13:52:23;4.25;;;1.30;;
32319;SDS011;19080;51.750;5.888;2023-04-25T13:54:50;3.67;;;1.30;;
32319;SDS011;19080;51.750;5.888;2023-04-25T13:57:17;2.88;;;1.05;;
32319;SDS011;19080;51.750;5.888;2023-04-25T13:59:44;7.68;;;1.13;;
32319;SDS011;19080;51.750;5.888;2023-04-25T14:02:12;3.85;;;1.13;;
32319;SDS011;19080;51.750;5.888;2023-04-25T14:04:39;4.13;;;1.08;;
32319;SDS011;19080;51.750;5.888;2023-04-25T14:07:05;2.40;;;1.02;;
32319;SDS011;19080;51.750;5.888;2023-04-25T14:09:32;7.20;;;1.15;;
32319;SDS011;19080;51.750;5.888;2023-04-25T14:11:58;6.63;;;3.47;;
32319;SDS011;19080;51.750;5.888;2023-04-25T14:14:25;4.10;;;1.73;;
32319;SDS011;19080;51.750;5.888;2023-04-25T14:16:52;10.00;;;4.35;;
32319;SDS011;19080;51.750;5.888;2023-04-25T14:19:20;4.15;;;1.23;;
32319;SDS011;19080;51.750;5.888;2023-04-25T14:21:47;8.38;;;3.58;;
32319;SDS011;19080;51.750;5.888;2023-04-25T14:24:14;7.88;;;3.13;;
32319;SDS011;19080;51.750;5.888;2023-04-25T14:26:42;6.63;;;2.53;;
32319;SDS011;19080;51.750;5.888;2023-04-25T14:29:09;4.22;;;1.77;;
32319;SDS011;19080;51.750;5.888;2023-04-25T14:31:38;5.97;;;1.15;;
32319;SDS011;19080;51.750;5.888;2023-04-25T14:34:07;1.40;;;0.82;;
32319;SDS011;19080;51.750;5.888;2023-04-25T14:36:35;3.88;;;1.35;;
32319;SDS011;19080;51.750;5.888;2023-04-25T14:39:02;4.15;;;1.33;;
32319;SDS011;19080;51.750;5.888;2023-04-25T14:41:31;4.32;;;1.08;;
32319;SDS011;19080;51.750;5.888;2023-04-25T14:43:58;4.75;;;1.15;;
32319;SDS011;19080;51.750;5.888;2023-04-25T14:46:25;7.45;;;1.42;;
32319;SDS011;19080;51.750;5.888;2023-04-25T14:48:52;4.57;;;1.00;;
32319;SDS011;19080;51.750;5.888;2023-04-25T14:51:19;5.22;;;1.10;;
32319;SDS011;19080;51.750;5.888;2023-04-25T14:53:46;5.18;;;1.08;;
32319;SDS011;19080;51.750;5.888;2023-04-25T14:56:13;4.03;;;1.10;;
32319;SDS011;19080;51.750;5.888;2023-04-25T14:58:39;3.50;;;1.10;;
32319;SDS011;19080;51.750;5.888;2023-04-25T15:01:06;1.85;;;0.80;;
32319;SDS011;19080;51.750;5.888;2023-04-25T15:03:34;4.70;;;1.08;;
32319;SDS011;19080;51.750;5.888;2023-04-25T15:06:01;6.03;;;1.40;;
32319;SDS011;19080;51.750;5.888;2023-04-25T15:08:28;6.25;;;1.60;;
32319;SDS011;19080;51.750;5.888;2023-04-25T15:10:54;6.80;;;1.48;;
32319;SDS011;19080;51.750;5.888;2023-04-25T15:13:21;7.00;;;1.35;;
32319;SDS011;19080;51.750;5.888;2023-04-25T15:15:48;4.53;;;1.33;;
32319;SDS011;19080;51.750;5.888;2023-04-25T15:18:21;2.30;;;1.25;;
32319;SDS011;19080;51.750;5.888;2023-04-25T15:20:52;5.75;;;1.65;;
32319;SDS011;19080;51.750;5.888;2023-04-25T15:23:19;6.75;;;1.30;;
32319;SDS011;19080;51.750;5.888;2023-04-25T15:25:49;3.13;;;1.02;;
32319;SDS011;19080;51.750;5.888;2023-04-25T15:28:16;3.45;;;1.20;;
32319;SDS011;19080;51.750;5.888;2023-04-25T15:30:43;5.68;;;1.85;;
32319;SDS011;19080;51.750;5.888;2023-04-25T15:33:10;2.53;;;1.25;;
32319;SDS011;19080;51.750;5.888;2023-04-25T15:35:37;6.57;;;1.55;;
32319;SDS011;19080;51.750;5.888;2023-04-25T15:38:04;3.55;;;1.67;;
32319;SDS011;19080;51.750;5.888;2023-04-25T15:40:30;4.22;;;1.38;;
32319;SDS011;19080;51.750;5.888;2023-04-25T15:42:57;3.33;;;1.10;;
32319;SDS011;19080;51.750;5.888;2023-04-25T15:45:25;6.05;;;1.60;;
32319;SDS011;19080;51.750;5.888;2023-04-25T15:47:53;8.30;;;2.05;;
32319;SDS011;19080;51.750;5.888;2023-04-25T15:50:21;6.03;;;2.63;;
32319;SDS011;19080;51.750;5.888;2023-04-25T15:52:48;7.05;;;2.08;;
32319;SDS011;19080;51.750;5.888;2023-04-25T15:55:16;5.78;;;2.83;;
32319;SDS011;19080;51.750;5.888;2023-04-25T15:57:44;5.30;;;2.47;;
32319;SDS011;19080;51.750;5.888;2023-04-25T16:00:12;3.28;;;1.48;;
32319;SDS011;19080;51.750;5.888;2023-04-25T16:02:41;6.07;;;2.83;;
32319;SDS011;19080;51.750;5.888;2023-04-25T16:05:08;7.63;;;2.45;;
32319;SDS011;19080;51.750;5.888;2023-04-25T16:07:37;4.88;;;1.60;;
32319;SDS011;19080;51.750;5.888;2023-04-25T16:10:04;5.18;;;1.60;;
32319;SDS011;19080;51.750;5.888;2023-04-25T16:12:31;5.15;;;1.67;;
32319;SDS011;19080;51.750;5.888;2023-04-25T16:14:58;3.78;;;1.30;;
32319;SDS011;19080;51.750;5.888;2023-04-25T16:17:25;6.07;;;1.40;;
32319;SDS011;19080;51.750;5.888;2023-04-25T16:19:55;5.80;;;1.52;;
32319;SDS011;19080;51.750;5.888;2023-04-25T16:22:22;5.82;;;1.60;;
32319;SDS011;19080;51.750;5.888;2023-04-25T16:24:48;4.35;;;1.60;;
32319;SDS011;19080;51.750;5.888;2023-04-25T16:27:15;5.03;;;1.55;;
32319;SDS011;19080;51.750;5.888;2023-04-25T16:29:42;5.55;;;1.95;;
32319;SDS011;19080;51.750;5.888;2023-04-25T16:32:09;7.07;;;2.35;;
32319;SDS011;19080;51.750;5.888;2023-04-25T16:34:36;5.45;;;2.17;;
32319;SDS011;19080;51.750;5.888;2023-04-25T16:37:02;5.45;;;1.90;;
32319;SDS011;19080;51.750;5.888;2023-04-25T16:39:29;4.57;;;1.55;;
32319;SDS011;19080;51.750;5.888;2023-04-25T16:41:56;6.40;;;1.60;;
32319;SDS011;19080;51.750;5.888;2023-04-25T16:44:22;6.47;;;1.20;;
32319;SDS011;19080;51.750;5.888;2023-04-25T16:46:49;5.93;;;2.58;;
32319;SDS011;19080;51.750;5.888;2023-04-25T16:49:16;8.15;;;2.13;;